sensor_id;sensor_type;location;lat;lon;timestamp;P1;durP1;ratioP1;P2;durP2;ratioP2
82374;SDS011;72005;50.496;15.798;2023-12-04T00:01:24;28.60;;;14.87;;
82374;SDS011;72005;50.496;15.798;2023-12-04T00:03:51;23.38;;;12.95;;
82374;SDS011;72005;50.496;15.798;2023-12-04T00:06:18;23.15;;;13.00;;
82374;SDS011;72005;50.496;15.798;2023-12-04T00:08:44;21.67;;;12.23;;
82374;SDS011;72005;50.496;15.798;2023-12-04T00:11:09;25.75;;;12.85;;
82374;SDS011;72005;50.496;15.798;2023-12-04T00:13:35;25.60;;;12.13;;
82374;SDS011;72005;50.496;15.798;2023-12-04T00:16:01;23.30;;;12.80;;
82374;SDS011;72005;50.496;15.798;2023-12-04T00:18:26;20.60;;;12.25;;
82374;SDS011;72005;50.496;15.798;2023-12-04T00:20:52;21.65;;;12.68;;
82374;SDS011;72005;50.496;15.798;2023-12-04T00:23:18;22.50;;;12.32;;
82374;SDS011;72005;50.496;15.798;2023-12-04T00:25:43;22.50;;;12.32;;
82374;SDS011;72005;50.496;15.798;2023-12-04T00:28:09;21.98;;;12.27;;
82374;SDS011;72005;50.496;15.798;2023-12-04T00:30:35;26.15;;;13.70;;
82374;SDS011;72005;50.496;15.798;2023-12-04T00:33:00;28.30;;;13.85;;
82374;SDS011;72005;50.496;15.798;2023-12-04T00:35:26;23.50;;;12.55;;
82374;SDS011;72005;50.496;15.798;2023-12-04T00:37:52;25.67;;;13.15;;
82374;SDS011;72005;50.496;15.798;2023-12-04T00:40:17;24.75;;;12.68;;
82374;SDS011;72005;50.496;15.798;2023-12-04T00:42:43;21.88;;;12.52;;
82374;SDS011;72005;50.496;15.798;2023-12-04T00:45:09;25.08;;;13.52;;
82374;SDS011;72005;50.496;15.798;2023-12-04T00:47:34;23.38;;;13.05;;
82374;SDS011;72005;50.496;15.798;2023-12-04T00:50:00;24.02;;;13.50;;
82374;SDS011;72005;50.496;15.798;2023-12-04T00:52:26;24.05;;;12.48;;
82374;SDS011;72005;50.496;15.798;2023-12-04T00:54:51;22.90;;;12.30;;
82374;SDS011;72005;50.496;15.798;2023-12-04T00:57:17;26.08;;;12.35;;
82374;SDS011;72005;50.496;15.798;2023-12-04T00:59:43;19.98;;;11.20;;
82374;SDS011;72005;50.496;15.798;2023-12-04T01:02:08;21.30;;;10.40;;
82374;SDS011;72005;50.496;15.798;2023-12-04T01:04:34;22.88;;;11.23;;
82374;SDS011;72005;50.496;15.798;2023-12-04T01:07:00;22.85;;;11.25;;
82374;SDS011;72005;50.496;15.798;2023-12-04T01:09:26;21.75;;;11.05;;
82374;SDS011;72005;50.496;15.798;2023-12-04T01:11:55;28.15;;;12.82;;
82374;SDS011;72005;50.496;15.798;2023-12-04T01:14:20;29.58;;;13.05;;
82374;SDS011;72005;50.496;15.798;2023-12-04T01:16:46;29.45;;;14.40;;
82374;SDS011;72005;50.496;15.798;2023-12-04T01:19:12;30.33;;;14.55;;
82374;SDS011;72005;50.496;15.798;2023-12-04T01:21:38;29.67;;;13.90;;
82374;SDS011;72005;50.496;15.798;2023-12-04T01:24:04;21.23;;;11.40;;
82374;SDS011;72005;50.496;15.798;2023-12-04T01:26:30;25.17;;;12.52;;
82374;SDS011;72005;50.496;15.798;2023-12-04T01:28:55;24.15;;;12.73;;
82374;SDS011;72005;50.496;15.798;2023-12-04T01:31:21;31.30;;;13.75;;
82374;SDS011;72005;50.496;15.798;2023-12-04T01:33:47;25.20;;;11.68;;
82374;SDS011;72005;50.496;15.798;2023-12-04T01:36:13;21.67;;;10.13;;
82374;SDS011;72005;50.496;15.798;2023-12-04T01:38:38;18.35;;;10.15;;
82374;SDS011;72005;50.496;15.798;2023-12-04T01:41:04;16.02;;;8.75;;
82374;SDS011;72005;50.496;15.798;2023-12-04T01:43:30;12.02;;;7.70;;
82374;SDS011;72005;50.496;15.798;2023-12-04T01:45:56;11.93;;;7.25;;
82374;SDS011;72005;50.496;15.798;2023-12-04T01:48:23;11.30;;;6.78;;
82374;SDS011;72005;50.496;15.798;2023-12-04T01:50:51;12.52;;;6.63;;
82374;SDS011;72005;50.496;15.798;2023-12-04T01:53:17;10.35;;;6.25;;
82374;SDS011;72005;50.496;15.798;2023-12-04T01:55:42;12.93;;;7.00;;
82374;SDS011;72005;50.496;15.798;2023-12-04T01:58:08;11.88;;;6.97;;
82374;SDS011;72005;50.496;15.798;2023-12-04T02:00:35;12.88;;;6.95;;
82374;SDS011;72005;50.496;15.798;2023-12-04T02:03:00;9.45;;;6.03;;
82374;SDS011;72005;50.496;15.798;2023-12-04T02:05:27;12.73;;;6.82;;
82374;SDS011;72005;50.496;15.798;2023-12-04T02:07:53;10.50;;;6.20;;
82374;SDS011;72005;50.496;15.798;2023-12-04T02:10:20;12.45;;;6.80;;
82374;SDS011;72005;50.496;15.798;2023-12-04T02:12:46;10.57;;;5.28;;
82374;SDS011;72005;50.496;15.798;2023-12-04T02:15:11;13.35;;;5.72;;
82374;SDS011;72005;50.496;15.798;2023-12-04T02:17:38;14.40;;;6.18;;
82374;SDS011;72005;50.496;15.798;2023-12-04T02:20:05;14.65;;;7.15;;
82374;SDS011;72005;50.496;15.798;2023-12-04T02:22:32;13.40;;;6.97;;
82374;SDS011;72005;50.496;15.798;2023-12-04T02:24:58;14.20;;;7.10;;
82374;SDS011;72005;50.496;15.798;2023-12-04T02:27:26;36.30;;;13.93;;
82374;SDS011;72005;50.496;15.798;2023-12-04T02:29:58;31.52;;;14.32;;
82374;SDS011;72005;50.496;15.798;2023-12-04T02:32:26;30.10;;;13.40;;
82374;SDS011;72005;50.496;15.798;2023-12-04T02:34:54;38.85;;;15.48;;
82374;SDS011;72005;50.496;15.798;2023-12-04T02:37:22;117.57;;;15.13;;
82374;SDS011;72005;50.496;15.798;2023-12-04T02:39:48;163.02;;;14.02;;
82374;SDS011;72005;50.496;15.798;2023-12-04T02:42:20;57.03;;;12.85;;
82374;SDS011;72005;50.496;15.798;2023-12-04T02:44:49;127.55;;;14.40;;
82374;SDS011;72005;50.496;15.798;2023-12-04T02:47:15;135.82;;;15.98;;
82374;SDS011;72005;50.496;15.798;2023-12-04T02:49:41;165.95;;;17.02;;
82374;SDS011;72005;50.496;15.798;2023-12-04T02:52:06;142.70;;;15.57;;
82374;SDS011;72005;50.496;15.798;2023-12-04T02:54:32;213.73;;;17.58;;
82374;SDS011;72005;50.496;15.798;2023-12-04T02:56:57;181.68;;;17.08;;
82374;SDS011;72005;50.496;15.798;2023-12-04T02:59:23;190.05;;;16.05;;
82374;SDS011;72005;50.496;15.798;2023-12-04T03:01:49;196.90;;;17.45;;
82374;SDS011;72005;50.496;15.798;2023-12-04T03:04:14;75.90;;;14.80;;
82374;SDS011;72005;50.496;15.798;2023-12-04T03:06:40;104.88;;;15.07;;
82374;SDS011;72005;50.496;15.798;2023-12-04T03:09:06;134.85;;;15.77;;
82374;SDS011;72005;50.496;15.798;2023-12-04T03:11:31;71.82;;;13.35;;
82374;SDS011;72005;50.496;15.798;2023-12-04T03:13:59;53.38;;;13.45;;
82374;SDS011;72005;50.496;15.798;2023-12-04T03:16:25;88.90;;;13.75;;
82374;SDS011;72005;50.496;15.798;2023-12-04T03:18:51;93.57;;;14.90;;
82374;SDS011;72005;50.496;15.798;2023-12-04T03:21:16;155.30;;;14.82;;
82374;SDS011;72005;50.496;15.798;2023-12-04T03:23:42;55.88;;;12.07;;
82374;SDS011;72005;50.496;15.798;2023-12-04T03:26:08;71.15;;;14.32;;
82374;SDS011;72005;50.496;15.798;2023-12-04T03:28:34;115.55;;;13.98;;
82374;SDS011;72005;50.496;15.798;2023-12-04T03:31:00;115.80;;;15.73;;
82374;SDS011;72005;50.496;15.798;2023-12-04T03:33:25;82.40;;;14.38;;
82374;SDS011;72005;50.496;15.798;2023-12-04T03:35:51;89.03;;;13.52;;
82374;SDS011;72005;50.496;15.798;2023-12-04T03:38:17;151.63;;;15.25;;
82374;SDS011;72005;50.496;15.798;2023-12-04T03:40:42;131.60;;;15.35;;
82374;SDS011;72005;50.496;15.798;2023-12-04T03:43:08;181.05;;;17.48;;
82374;SDS011;72005;50.496;15.798;2023-12-04T03:45:34;159.38;;;20.23;;
82374;SDS011;72005;50.496;15.798;2023-12-04T03:47:59;72.05;;;16.98;;
82374;SDS011;72005;50.496;15.798;2023-12-04T03:50:25;111.75;;;17.73;;
82374;SDS011;72005;50.496;15.798;2023-12-04T03:52:51;117.25;;;17.73;;
82374;SDS011;72005;50.496;15.798;2023-12-04T03:55:16;176.95;;;16.10;;
82374;SDS011;72005;50.496;15.798;2023-12-04T03:57:44;264.20;;;20.58;;
82374;SDS011;72005;50.496;15.798;2023-12-04T04:00:10;241.27;;;19.02;;
82374;SDS011;72005;50.496;15.798;2023-12-04T04:02:37;272.00;;;21.98;;
82374;SDS011;72005;50.496;15.798;2023-12-04T04:05:04;44.00;;;13.77;;
82374;SDS011;72005;50.496;15.798;2023-12-04T04:07:30;118.25;;;15.18;;
82374;SDS011;72005;50.496;15.798;2023-12-04T04:09:56;141.40;;;14.60;;
82374;SDS011;72005;50.496;15.798;2023-12-04T04:12:22;70.35;;;13.73;;
82374;SDS011;72005;50.496;15.798;2023-12-04T04:14:48;167.18;;;15.63;;
82374;SDS011;72005;50.496;15.798;2023-12-04T04:17:13;81.95;;;14.13;;
82374;SDS011;72005;50.496;15.798;2023-12-04T04:19:39;143.38;;;17.17;;
82374;SDS011;72005;50.496;15.798;2023-12-04T04:22:06;172.63;;;16.73;;
82374;SDS011;72005;50.496;15.798;2023-12-04T04:24:32;73.18;;;14.25;;
82374;SDS011;72005;50.496;15.798;2023-12-04T04:26:57;156.63;;;16.45;;
82374;SDS011;72005;50.496;15.798;2023-12-04T04:29:23;62.28;;;14.05;;
82374;SDS011;72005;50.496;15.798;2023-12-04T04:31:49;115.88;;;14.95;;
82374;SDS011;72005;50.496;15.798;2023-12-04T04:34:14;110.18;;;15.02;;
82374;SDS011;72005;50.496;15.798;2023-12-04T04:36:40;65.80;;;16.55;;
82374;SDS011;72005;50.496;15.798;2023-12-04T04:39:05;119.90;;;16.75;;
82374;SDS011;72005;50.496;15.798;2023-12-04T04:41:32;210.43;;;20.10;;
82374;SDS011;72005;50.496;15.798;2023-12-04T04:43:57;99.50;;;15.70;;
82374;SDS011;72005;50.496;15.798;2023-12-04T04:46:23;61.88;;;15.68;;
82374;SDS011;72005;50.496;15.798;2023-12-04T04:48:50;98.65;;;17.27;;
82374;SDS011;72005;50.496;15.798;2023-12-04T04:51:16;182.85;;;18.20;;
82374;SDS011;72005;50.496;15.798;2023-12-04T04:53:41;85.38;;;15.25;;
82374;SDS011;72005;50.496;15.798;2023-12-04T04:56:07;165.00;;;18.55;;
82374;SDS011;72005;50.496;15.798;2023-12-04T04:58:33;111.82;;;15.38;;
82374;SDS011;72005;50.496;15.798;2023-12-04T05:00:59;95.90;;;17.02;;
82374;SDS011;72005;50.496;15.798;2023-12-04T05:03:25;81.00;;;13.88;;
82374;SDS011;72005;50.496;15.798;2023-12-04T05:05:51;68.22;;;13.18;;
82374;SDS011;72005;50.496;15.798;2023-12-04T05:08:16;120.68;;;14.27;;
82374;SDS011;72005;50.496;15.798;2023-12-04T05:10:42;37.60;;;13.10;;
82374;SDS011;72005;50.496;15.798;2023-12-04T05:13:08;50.70;;;13.98;;
82374;SDS011;72005;50.496;15.798;2023-12-04T05:15:34;46.35;;;13.45;;
82374;SDS011;72005;50.496;15.798;2023-12-04T05:17:59;49.45;;;14.70;;
82374;SDS011;72005;50.496;15.798;2023-12-04T05:20:25;47.13;;;14.98;;
82374;SDS011;72005;50.496;15.798;2023-12-04T05:22:51;39.30;;;12.38;;
82374;SDS011;72005;50.496;15.798;2023-12-04T05:25:17;44.80;;;13.85;;
82374;SDS011;72005;50.496;15.798;2023-12-04T05:27:43;51.90;;;13.63;;
82374;SDS011;72005;50.496;15.798;2023-12-04T05:30:09;48.67;;;12.25;;
82374;SDS011;72005;50.496;15.798;2023-12-04T05:32:35;71.60;;;16.58;;
82374;SDS011;72005;50.496;15.798;2023-12-04T05:35:01;54.50;;;14.93;;
82374;SDS011;72005;50.496;15.798;2023-12-04T05:37:26;31.77;;;12.68;;
82374;SDS011;72005;50.496;15.798;2023-12-04T05:39:52;61.28;;;13.20;;
82374;SDS011;72005;50.496;15.798;2023-12-04T05:42:17;54.22;;;13.45;;
82374;SDS011;72005;50.496;15.798;2023-12-04T05:44:43;57.13;;;13.90;;
82374;SDS011;72005;50.496;15.798;2023-12-04T05:47:09;71.90;;;14.32;;
82374;SDS011;72005;50.496;15.798;2023-12-04T05:49:34;59.55;;;13.10;;
82374;SDS011;72005;50.496;15.798;2023-12-04T05:52:00;57.75;;;11.13;;
82374;SDS011;72005;50.496;15.798;2023-12-04T05:54:26;88.70;;;14.05;;
82374;SDS011;72005;50.496;15.798;2023-12-04T05:56:51;95.38;;;14.30;;
82374;SDS011;72005;50.496;15.798;2023-12-04T05:59:17;121.85;;;16.75;;
82374;SDS011;72005;50.496;15.798;2023-12-04T06:01:43;71.22;;;13.20;;
82374;SDS011;72005;50.496;15.798;2023-12-04T06:04:09;64.00;;;13.07;;
82374;SDS011;72005;50.496;15.798;2023-12-04T06:06:34;33.42;;;12.48;;
82374;SDS011;72005;50.496;15.798;2023-12-04T06:09:00;50.47;;;14.70;;
82374;SDS011;72005;50.496;15.798;2023-12-04T06:11:26;47.92;;;13.32;;
82374;SDS011;72005;50.496;15.798;2023-12-04T06:13:51;42.63;;;15.35;;
82374;SDS011;72005;50.496;15.798;2023-12-04T06:16:17;109.95;;;17.00;;
82374;SDS011;72005;50.496;15.798;2023-12-04T06:18:43;153.15;;;20.13;;
82374;SDS011;72005;50.496;15.798;2023-12-04T06:21:08;38.78;;;9.98;;
82374;SDS011;72005;50.496;15.798;2023-12-04T06:23:34;63.03;;;11.90;;
82374;SDS011;72005;50.496;15.798;2023-12-04T06:26:00;73.38;;;13.05;;
82374;SDS011;72005;50.496;15.798;2023-12-04T06:28:26;196.73;;;18.08;;
82374;SDS011;72005;50.496;15.798;2023-12-04T06:30:52;42.78;;;14.80;;
82374;SDS011;72005;50.496;15.798;2023-12-04T06:33:18;85.38;;;15.88;;
82374;SDS011;72005;50.496;15.798;2023-12-04T06:35:45;50.30;;;15.95;;
82374;SDS011;72005;50.496;15.798;2023-12-04T06:38:12;49.08;;;12.10;;
82374;SDS011;72005;50.496;15.798;2023-12-04T06:40:41;49.80;;;12.45;;
82374;SDS011;72005;50.496;15.798;2023-12-04T06:43:07;33.35;;;11.30;;
82374;SDS011;72005;50.496;15.798;2023-12-04T06:45:33;102.10;;;12.85;;
82374;SDS011;72005;50.496;15.798;2023-12-04T06:47:59;137.50;;;13.13;;
82374;SDS011;72005;50.496;15.798;2023-12-04T06:50:28;95.55;;;12.95;;
82374;SDS011;72005;50.496;15.798;2023-12-04T06:52:54;88.35;;;13.05;;
82374;SDS011;72005;50.496;15.798;2023-12-04T06:55:19;63.47;;;12.05;;
82374;SDS011;72005;50.496;15.798;2023-12-04T06:57:45;147.50;;;12.90;;
82374;SDS011;72005;50.496;15.798;2023-12-04T07:00:11;92.72;;;14.32;;
82374;SDS011;72005;50.496;15.798;2023-12-04T07:02:38;56.85;;;12.80;;
82374;SDS011;72005;50.496;15.798;2023-12-04T07:05:04;49.97;;;12.05;;
82374;SDS011;72005;50.496;15.798;2023-12-04T07:07:30;34.67;;;13.25;;
82374;SDS011;72005;50.496;15.798;2023-12-04T07:09:55;33.58;;;13.05;;
82374;SDS011;72005;50.496;15.798;2023-12-04T07:12:21;122.22;;;16.40;;
82374;SDS011;72005;50.496;15.798;2023-12-04T07:14:47;35.42;;;13.15;;
82374;SDS011;72005;50.496;15.798;2023-12-04T07:17:12;29.48;;;12.55;;
82374;SDS011;72005;50.496;15.798;2023-12-04T07:19:40;38.53;;;13.02;;
82374;SDS011;72005;50.496;15.798;2023-12-04T07:22:06;42.28;;;12.95;;
82374;SDS011;72005;50.496;15.798;2023-12-04T07:24:32;29.70;;;12.18;;
82374;SDS011;72005;50.496;15.798;2023-12-04T07:26:58;43.60;;;13.60;;
82374;SDS011;72005;50.496;15.798;2023-12-04T07:29:24;24.70;;;10.98;;
82374;SDS011;72005;50.496;15.798;2023-12-04T07:31:50;31.98;;;12.50;;
82374;SDS011;72005;50.496;15.798;2023-12-04T07:34:16;29.33;;;12.35;;
82374;SDS011;72005;50.496;15.798;2023-12-04T07:36:42;27.30;;;12.70;;
82374;SDS011;72005;50.496;15.798;2023-12-04T07:39:09;29.08;;;12.93;;
82374;SDS011;72005;50.496;15.798;2023-12-04T07:41:36;30.63;;;12.93;;
82374;SDS011;72005;50.496;15.798;2023-12-04T07:44:02;31.08;;;13.95;;
82374;SDS011;72005;50.496;15.798;2023-12-04T07:46:29;31.48;;;13.13;;
82374;SDS011;72005;50.496;15.798;2023-12-04T07:48:55;38.25;;;16.42;;
82374;SDS011;72005;50.496;15.798;2023-12-04T07:51:21;36.70;;;15.10;;
82374;SDS011;72005;50.496;15.798;2023-12-04T07:53:46;25.77;;;11.75;;
82374;SDS011;72005;50.496;15.798;2023-12-04T07:56:13;30.20;;;12.60;;
82374;SDS011;72005;50.496;15.798;2023-12-04T07:58:38;27.85;;;13.25;;
82374;SDS011;72005;50.496;15.798;2023-12-04T08:01:04;29.48;;;13.32;;
82374;SDS011;72005;50.496;15.798;2023-12-04T08:03:31;40.90;;;16.48;;
82374;SDS011;72005;50.496;15.798;2023-12-04T08:05:57;30.95;;;13.85;;
82374;SDS011;72005;50.496;15.798;2023-12-04T08:08:23;31.67;;;14.23;;
82374;SDS011;72005;50.496;15.798;2023-12-04T08:10:50;31.27;;;14.10;;
82374;SDS011;72005;50.496;15.798;2023-12-04T08:13:15;35.10;;;15.85;;
82374;SDS011;72005;50.496;15.798;2023-12-04T08:15:42;23.77;;;12.32;;
82374;SDS011;72005;50.496;15.798;2023-12-04T08:18:08;27.25;;;12.52;;
82374;SDS011;72005;50.496;15.798;2023-12-04T08:20:34;33.25;;;14.13;;
82374;SDS011;72005;50.496;15.798;2023-12-04T08:23:00;28.00;;;13.07;;
82374;SDS011;72005;50.496;15.798;2023-12-04T08:25:26;27.35;;;13.38;;
82374;SDS011;72005;50.496;15.798;2023-12-04T08:27:51;32.97;;;14.98;;
82374;SDS011;72005;50.496;15.798;2023-12-04T08:30:17;21.55;;;11.88;;
82374;SDS011;72005;50.496;15.798;2023-12-04T08:32:43;26.00;;;12.43;;
82374;SDS011;72005;50.496;15.798;2023-12-04T08:35:09;32.13;;;14.65;;
82374;SDS011;72005;50.496;15.798;2023-12-04T08:37:35;28.63;;;13.15;;
82374;SDS011;72005;50.496;15.798;2023-12-04T08:40:01;25.30;;;12.05;;
82374;SDS011;72005;50.496;15.798;2023-12-04T08:42:28;23.25;;;11.13;;
82374;SDS011;72005;50.496;15.798;2023-12-04T08:44:54;27.05;;;12.02;;
82374;SDS011;72005;50.496;15.798;2023-12-04T08:47:20;21.02;;;11.35;;
82374;SDS011;72005;50.496;15.798;2023-12-04T08:49:46;18.48;;;9.85;;
82374;SDS011;72005;50.496;15.798;2023-12-04T08:52:12;17.58;;;9.32;;
82374;SDS011;72005;50.496;15.798;2023-12-04T08:54:39;16.58;;;8.40;;
82374;SDS011;72005;50.496;15.798;2023-12-04T08:57:07;18.75;;;10.68;;
82374;SDS011;72005;50.496;15.798;2023-12-04T08:59:33;21.17;;;9.90;;
82374;SDS011;72005;50.496;15.798;2023-12-04T09:01:59;18.15;;;10.10;;
82374;SDS011;72005;50.496;15.798;2023-12-04T09:04:24;19.58;;;10.27;;
82374;SDS011;72005;50.496;15.798;2023-12-04T09:06:50;16.55;;;8.82;;
82374;SDS011;72005;50.496;15.798;2023-12-04T09:09:16;18.30;;;9.30;;
82374;SDS011;72005;50.496;15.798;2023-12-04T09:11:42;20.95;;;10.38;;
82374;SDS011;72005;50.496;15.798;2023-12-04T09:14:08;20.48;;;11.60;;
82374;SDS011;72005;50.496;15.798;2023-12-04T09:16:34;20.27;;;10.68;;
82374;SDS011;72005;50.496;15.798;2023-12-04T09:19:00;21.25;;;10.30;;
82374;SDS011;72005;50.496;15.798;2023-12-04T09:21:26;16.63;;;9.38;;
82374;SDS011;72005;50.496;15.798;2023-12-04T09:23:52;17.27;;;8.90;;
82374;SDS011;72005;50.496;15.798;2023-12-04T09:26:18;13.27;;;8.07;;
82374;SDS011;72005;50.496;15.798;2023-12-04T09:28:44;20.02;;;10.73;;
82374;SDS011;72005;50.496;15.798;2023-12-04T09:31:09;15.07;;;8.73;;
82374;SDS011;72005;50.496;15.798;2023-12-04T09:33:35;15.68;;;8.43;;
82374;SDS011;72005;50.496;15.798;2023-12-04T09:36:02;16.38;;;8.75;;
82374;SDS011;72005;50.496;15.798;2023-12-04T09:38:28;16.30;;;8.77;;
82374;SDS011;72005;50.496;15.798;2023-12-04T09:40:55;17.55;;;8.80;;
82374;SDS011;72005;50.496;15.798;2023-12-04T09:43:27;12.75;;;6.75;;
82374;SDS011;72005;50.496;15.798;2023-12-04T09:45:56;15.90;;;9.07;;
82374;SDS011;72005;50.496;15.798;2023-12-04T09:48:23;15.82;;;8.45;;
82374;SDS011;72005;50.496;15.798;2023-12-04T09:50:51;17.60;;;8.55;;
82374;SDS011;72005;50.496;15.798;2023-12-04T09:53:17;13.15;;;7.47;;
82374;SDS011;72005;50.496;15.798;2023-12-04T09:55:43;15.35;;;8.68;;
82374;SDS011;72005;50.496;15.798;2023-12-04T09:58:12;15.30;;;8.73;;
82374;SDS011;72005;50.496;15.798;2023-12-04T10:00:40;14.57;;;9.35;;
82374;SDS011;72005;50.496;15.798;2023-12-04T10:03:08;17.40;;;9.15;;
82374;SDS011;72005;50.496;15.798;2023-12-04T10:05:34;16.35;;;8.15;;
82374;SDS011;72005;50.496;15.798;2023-12-04T10:07:59;17.80;;;8.50;;
82374;SDS011;72005;50.496;15.798;2023-12-04T10:10:25;17.58;;;8.80;;
82374;SDS011;72005;50.496;15.798;2023-12-04T10:12:51;18.80;;;9.98;;
82374;SDS011;72005;50.496;15.798;2023-12-04T10:15:16;27.27;;;11.95;;
82374;SDS011;72005;50.496;15.798;2023-12-04T10:17:42;18.05;;;8.98;;
82374;SDS011;72005;50.496;15.798;2023-12-04T10:20:12;18.67;;;9.82;;
82374;SDS011;72005;50.496;15.798;2023-12-04T10:22:55;16.70;;;8.82;;
82374;SDS011;72005;50.496;15.798;2023-12-04T10:25:22;15.52;;;9.00;;
82374;SDS011;72005;50.496;15.798;2023-12-04T10:27:50;19.85;;;9.82;;
82374;SDS011;72005;50.496;15.798;2023-12-04T10:30:22;11.85;;;6.72;;
82374;SDS011;72005;50.496;15.798;2023-12-04T10:33:02;18.80;;;9.85;;
82374;SDS011;72005;50.496;15.798;2023-12-04T10:35:31;17.30;;;9.20;;
82374;SDS011;72005;50.496;15.798;2023-12-04T10:37:57;17.48;;;9.63;;
82374;SDS011;72005;50.496;15.798;2023-12-04T10:40:31;30.88;;;14.60;;
82374;SDS011;72005;50.496;15.798;2023-12-04T10:45:37;26.70;;;15.27;;
82374;SDS011;72005;50.496;15.798;2023-12-04T10:48:03;19.55;;;10.75;;
82374;SDS011;72005;50.496;15.798;2023-12-04T10:50:40;16.15;;;9.40;;
82374;SDS011;72005;50.496;15.798;2023-12-04T10:53:10;23.95;;;11.70;;
82374;SDS011;72005;50.496;15.798;2023-12-04T10:55:38;18.95;;;9.77;;
82374;SDS011;72005;50.496;15.798;2023-12-04T10:58:09;18.90;;;9.95;;
82374;SDS011;72005;50.496;15.798;2023-12-04T11:00:37;23.27;;;12.23;;
82374;SDS011;72005;50.496;15.798;2023-12-04T11:06:11;18.60;;;9.07;;
82374;SDS011;72005;50.496;15.798;2023-12-04T11:08:41;17.90;;;8.27;;
82374;SDS011;72005;50.496;15.798;2023-12-04T11:11:18;26.13;;;12.38;;
82374;SDS011;72005;50.496;15.798;2023-12-04T11:13:50;16.63;;;8.85;;
82374;SDS011;72005;50.496;15.798;2023-12-04T11:16:28;15.43;;;8.40;;
82374;SDS011;72005;50.496;15.798;2023-12-04T11:21:50;17.35;;;9.07;;
82374;SDS011;72005;50.496;15.798;2023-12-04T11:24:16;15.82;;;8.18;;
82374;SDS011;72005;50.496;15.798;2023-12-04T11:26:43;13.02;;;7.68;;
82374;SDS011;72005;50.496;15.798;2023-12-04T11:29:11;16.33;;;8.02;;
82374;SDS011;72005;50.496;15.798;2023-12-04T11:31:38;15.07;;;8.30;;
82374;SDS011;72005;50.496;15.798;2023-12-04T11:34:04;13.50;;;7.78;;
82374;SDS011;72005;50.496;15.798;2023-12-04T11:36:30;14.95;;;8.25;;
82374;SDS011;72005;50.496;15.798;2023-12-04T11:38:56;16.60;;;8.60;;
82374;SDS011;72005;50.496;15.798;2023-12-04T11:41:22;13.25;;;7.18;;
82374;SDS011;72005;50.496;15.798;2023-12-04T11:43:49;14.07;;;7.20;;
82374;SDS011;72005;50.496;15.798;2023-12-04T11:46:26;12.57;;;7.22;;
82374;SDS011;72005;50.496;15.798;2023-12-04T11:48:57;14.43;;;7.50;;
82374;SDS011;72005;50.496;15.798;2023-12-04T11:54:13;12.90;;;7.43;;
82374;SDS011;72005;50.496;15.798;2023-12-04T11:56:43;13.88;;;7.43;;
82374;SDS011;72005;50.496;15.798;2023-12-04T11:59:22;11.18;;;6.53;;
82374;SDS011;72005;50.496;15.798;2023-12-04T12:01:50;13.60;;;7.97;;
82374;SDS011;72005;50.496;15.798;2023-12-04T12:04:17;14.70;;;7.30;;
82374;SDS011;72005;50.496;15.798;2023-12-04T12:06:44;12.20;;;5.93;;
82374;SDS011;72005;50.496;15.798;2023-12-04T12:09:09;13.25;;;7.00;;
82374;SDS011;72005;50.496;15.798;2023-12-04T12:11:36;11.02;;;6.40;;
82374;SDS011;72005;50.496;15.798;2023-12-04T12:14:02;9.82;;;5.95;;
82374;SDS011;72005;50.496;15.798;2023-12-04T12:16:31;11.77;;;6.55;;
82374;SDS011;72005;50.496;15.798;2023-12-04T12:18:57;10.00;;;5.88;;
82374;SDS011;72005;50.496;15.798;2023-12-04T12:21:23;9.13;;;5.55;;
82374;SDS011;72005;50.496;15.798;2023-12-04T12:23:50;9.30;;;5.97;;
82374;SDS011;72005;50.496;15.798;2023-12-04T12:26:16;13.32;;;7.18;;
82374;SDS011;72005;50.496;15.798;2023-12-04T12:28:41;9.35;;;5.82;;
82374;SDS011;72005;50.496;15.798;2023-12-04T12:31:07;10.93;;;6.22;;
82374;SDS011;72005;50.496;15.798;2023-12-04T12:33:33;10.68;;;5.90;;
82374;SDS011;72005;50.496;15.798;2023-12-04T12:35:58;10.98;;;6.53;;
82374;SDS011;72005;50.496;15.798;2023-12-04T12:38:25;10.10;;;6.03;;
82374;SDS011;72005;50.496;15.798;2023-12-04T12:40:51;9.10;;;5.95;;
82374;SDS011;72005;50.496;15.798;2023-12-04T12:43:19;10.68;;;6.10;;
82374;SDS011;72005;50.496;15.798;2023-12-04T12:45:48;8.38;;;5.32;;
82374;SDS011;72005;50.496;15.798;2023-12-04T12:48:14;9.50;;;5.70;;
82374;SDS011;72005;50.496;15.798;2023-12-04T12:50:43;11.68;;;7.13;;
82374;SDS011;72005;50.496;15.798;2023-12-04T12:53:12;9.63;;;6.05;;
82374;SDS011;72005;50.496;15.798;2023-12-04T12:55:42;8.95;;;5.00;;
82374;SDS011;72005;50.496;15.798;2023-12-04T12:58:11;10.43;;;5.32;;
82374;SDS011;72005;50.496;15.798;2023-12-04T13:00:39;11.27;;;5.95;;
82374;SDS011;72005;50.496;15.798;2023-12-04T13:03:11;9.80;;;5.55;;
82374;SDS011;72005;50.496;15.798;2023-12-04T13:05:39;8.93;;;5.32;;
82374;SDS011;72005;50.496;15.798;2023-12-04T13:08:05;13.85;;;5.95;;
82374;SDS011;72005;50.496;15.798;2023-12-04T13:10:31;10.48;;;5.50;;
82374;SDS011;72005;50.496;15.798;2023-12-04T13:12:56;6.90;;;4.75;;
82374;SDS011;72005;50.496;15.798;2023-12-04T13:15:25;10.07;;;5.93;;
82374;SDS011;72005;50.496;15.798;2023-12-04T13:17:51;8.23;;;5.63;;
82374;SDS011;72005;50.496;15.798;2023-12-04T13:20:17;8.77;;;5.18;;
82374;SDS011;72005;50.496;15.798;2023-12-04T13:22:43;9.80;;;4.82;;
82374;SDS011;72005;50.496;15.798;2023-12-04T13:25:09;9.82;;;5.53;;
82374;SDS011;72005;50.496;15.798;2023-12-04T13:27:36;7.97;;;5.28;;
82374;SDS011;72005;50.496;15.798;2023-12-04T13:30:06;8.13;;;5.05;;
82374;SDS011;72005;50.496;15.798;2023-12-04T13:32:36;8.07;;;4.80;;
82374;SDS011;72005;50.496;15.798;2023-12-04T13:35:05;7.45;;;4.68;;
82374;SDS011;72005;50.496;15.798;2023-12-04T13:37:35;9.02;;;5.18;;
82374;SDS011;72005;50.496;15.798;2023-12-04T13:40:03;7.53;;;4.72;;
82374;SDS011;72005;50.496;15.798;2023-12-04T13:42:38;7.97;;;4.75;;
82374;SDS011;72005;50.496;15.798;2023-12-04T13:45:23;8.80;;;5.13;;
82374;SDS011;72005;50.496;15.798;2023-12-04T13:47:48;7.68;;;4.40;;
82374;SDS011;72005;50.496;15.798;2023-12-04T13:50:17;9.63;;;4.72;;
82374;SDS011;72005;50.496;15.798;2023-12-04T13:52:43;7.43;;;4.70;;
82374;SDS011;72005;50.496;15.798;2023-12-04T13:55:09;6.00;;;4.20;;
82374;SDS011;72005;50.496;15.798;2023-12-04T13:57:44;6.30;;;4.20;;
82374;SDS011;72005;50.496;15.798;2023-12-04T14:00:30;6.22;;;3.92;;
82374;SDS011;72005;50.496;15.798;2023-12-04T14:02:55;7.05;;;4.40;;
82374;SDS011;72005;50.496;15.798;2023-12-04T14:05:32;6.00;;;4.13;;
82374;SDS011;72005;50.496;15.798;2023-12-04T14:08:01;6.88;;;4.35;;
82374;SDS011;72005;50.496;15.798;2023-12-04T14:10:29;7.97;;;5.32;;
82374;SDS011;72005;50.496;15.798;2023-12-04T14:12:55;10.32;;;5.38;;
82374;SDS011;72005;50.496;15.798;2023-12-04T14:15:21;7.85;;;4.90;;
82374;SDS011;72005;50.496;15.798;2023-12-04T14:17:46;10.05;;;5.35;;
82374;SDS011;72005;50.496;15.798;2023-12-04T14:20:12;9.30;;;5.07;;
82374;SDS011;72005;50.496;15.798;2023-12-04T14:22:43;8.63;;;4.80;;